createdAt,value
2023-08-15T00:01:10.041Z,98445.66
2023-08-15T00:03:36.569Z,98454.75
2023-08-15T00:06:03.280Z,98446.00
2023-08-15T00:08:29.751Z,98447.19
2023-08-15T00:10:56.309Z,98438.88
2023-08-15T00:13:22.721Z,98436.03
2023-08-15T00:15:49.135Z,98443.94
2023-08-15T00:18:15.599Z,98439.94
2023-08-15T00:20:42.069Z,98438.34
2023-08-15T00:23:08.863Z,98442.28
2023-08-15T00:25:35.397Z,98441.09
2023-08-15T00:28:01.805Z,98436.34
2023-08-15T00:30:28.300Z,98444.63
2023-08-15T00:32:54.745Z,98446.97
2023-08-15T00:35:21.201Z,98439.84
2023-08-15T00:37:47.607Z,98435.91
2023-08-15T00:40:14.068Z,98431.56
2023-08-15T00:42:40.532Z,98429.56
2023-08-15T00:45:07.825Z,98430.38
2023-08-15T00:47:34.881Z,98435.09
2023-08-15T00:50:03.289Z,98432.34
2023-08-15T00:52:29.769Z,98429.53
2023-08-15T00:54:56.582Z,98431.88
2023-08-15T00:57:23.521Z,98427.88
2023-08-15T00:59:50.256Z,98425.50
2023-08-15T01:02:16.963Z,98427.47
2023-08-15T01:04:44.222Z,98424.28
2023-08-15T01:07:11.646Z,98423.44
2023-08-15T01:09:38.867Z,98420.69
2023-08-15T01:12:25.451Z,98431.34
2023-08-15T01:15:08.165Z,98430.50
2023-08-15T01:17:40.459Z,98423.72
2023-08-15T01:20:09.870Z,98417.78
2023-08-15T01:22:41.171Z,98415.41
2023-08-15T01:25:08.005Z,98414.59
2023-08-15T01:27:34.586Z,98405.88
2023-08-15T01:30:01.362Z,98415.72
2023-08-15T01:32:37.947Z,98412.56
2023-08-15T01:35:13.249Z,98412.50
2023-08-15T01:37:44.578Z,98417.22
2023-08-15T01:40:12.681Z,98409.28
2023-08-15T01:42:42.297Z,98414.00
2023-08-15T01:45:10.546Z,98410.03
2023-08-15T01:47:37.783Z,98413.97
2023-08-15T01:50:04.684Z,98415.88
2023-08-15T01:52:31.130Z,98409.13
2023-08-15T01:54:57.589Z,98417.03
2023-08-15T01:57:24.049Z,98415.41
2023-08-15T01:59:50.492Z,98423.28
2023-08-15T02:02:16.966Z,98417.75
2023-08-15T02:04:43.390Z,98413.81
2023-08-15T02:07:09.861Z,98412.22
2023-08-15T02:09:36.300Z,98409.84
2023-08-15T02:12:02.837Z,98414.59
2023-08-15T02:14:29.279Z,98407.47
2023-08-15T02:16:55.665Z,98401.94
2023-08-15T02:19:22.122Z,98394.38
2023-08-15T02:21:48.681Z,98399.09
2023-08-15T02:24:15.217Z,98404.97
2023-08-15T02:26:41.682Z,98414.06
2023-08-15T02:29:08.209Z,98399.50
2023-08-15T02:31:35.054Z,98407.41
2023-08-15T02:34:01.490Z,98411.75
2023-08-15T02:36:28.017Z,98407.41
2023-08-15T02:38:54.470Z,98409.38
2023-08-15T02:41:21.830Z,98396.75
2023-08-15T02:43:48.323Z,98399.50
2023-08-15T02:46:14.847Z,98401.84
2023-08-15T02:48:42.560Z,98404.19
2023-08-15T02:51:09.225Z,98402.97
2023-08-15T02:53:36.870Z,98402.59
2023-08-15T02:56:03.354Z,98395.47
2023-08-15T02:58:29.751Z,98401.78
2023-08-15T03:00:56.224Z,98403.31
2023-08-15T03:03:22.766Z,98401.69
2023-08-15T03:05:49.211Z,98400.84
2023-08-15T03:08:15.598Z,98406.28
2023-08-15T03:10:42.225Z,98403.13
2023-08-15T03:13:08.693Z,98405.50
2023-08-15T03:15:36.956Z,98399.19
2023-08-15T03:18:03.584Z,98402.31
2023-08-15T03:20:30.788Z,98400.75
2023-08-15T03:22:57.179Z,98411.78
2023-08-15T03:25:23.557Z,98413.38
2023-08-15T03:27:49.989Z,98398.38
2023-08-15T03:30:16.506Z,98405.09
2023-08-15T03:32:42.977Z,98413.69
2023-08-15T03:35:09.496Z,98412.91
2023-08-15T03:37:36.815Z,98414.09
2023-08-15T03:40:04.913Z,98416.44
2023-08-15T03:42:31.521Z,98430.63
2023-08-15T03:44:57.984Z,98431.75
2023-08-15T03:47:24.538Z,98433.31
2023-08-15T03:49:51.005Z,98443.16
2023-08-15T03:52:17.406Z,98434.00
2023-08-15T03:54:43.846Z,98430.41
2023-08-15T03:57:10.364Z,98434.31
2023-08-15T03:59:36.843Z,98428.00
2023-08-15T04:02:03.396Z,98426.00
2023-08-15T04:04:29.818Z,98430.28
2023-08-15T04:06:56.806Z,98438.56
2023-08-15T04:09:23.268Z,98452.38
2023-08-15T04:11:49.778Z,98450.06
2023-08-15T04:14:16.263Z,98439.00
2023-08-15T04:16:42.810Z,98442.94
2023-08-15T04:19:09.611Z,98455.97
2023-08-15T04:21:36.047Z,98458.34
2023-08-15T04:24:02.456Z,98459.94
2023-08-15T04:26:28.939Z,98452.38
2023-08-15T04:28:55.411Z,98469.41
2023-08-15T04:31:21.934Z,98480.81
2023-08-15T04:33:48.429Z,98490.25
2023-08-15T04:36:14.909Z,98488.09
2023-08-15T04:38:41.363Z,98486.00
2023-08-15T04:41:07.909Z,98482.84
2023-08-15T04:43:34.778Z,98480.50
2023-08-15T04:46:01.364Z,98490.78
2023-08-15T04:48:27.921Z,98499.13
2023-08-15T04:50:54.338Z,98499.56
2023-08-15T04:53:20.787Z,98495.63
2023-08-15T04:55:47.240Z,98496.13
2023-08-15T04:58:13.715Z,98492.66
2023-08-15T05:00:40.278Z,98501.28
2023-08-15T05:03:06.746Z,98487.13
2023-08-15T05:05:33.272Z,98492.69
2023-08-15T05:07:59.798Z,98491.19
2023-08-15T05:10:26.896Z,98486.50
2023-08-15T05:12:53.725Z,98488.94
2023-08-15T05:15:20.107Z,98496.53
2023-08-15T05:17:49.303Z,98493.91
2023-08-15T05:20:16.218Z,98496.53
2023-08-15T05:22:42.686Z,98494.22
2023-08-15T05:25:09.429Z,98509.41
2023-08-15T05:27:35.869Z,98509.59
2023-08-15T05:30:02.330Z,98510.59
2023-08-15T05:32:28.856Z,98514.72
2023-08-15T05:34:55.539Z,98516.34
2023-08-15T05:37:22.260Z,98515.59
2023-08-15T05:39:49.080Z,98520.34
2023-08-15T05:42:18.893Z,98515.22
2023-08-15T05:44:46.915Z,98515.31
2023-08-15T05:47:14.023Z,98512.22
2023-08-15T05:49:42.280Z,98519.84
2023-08-15T05:52:08.753Z,98525.88
2023-08-15T05:54:35.275Z,98525.56
2023-08-15T05:57:01.740Z,98535.06
2023-08-15T05:59:28.248Z,98540.97
2023-08-15T06:01:54.729Z,98538.97
2023-08-15T06:04:21.281Z,98553.16
2023-08-15T06:06:47.804Z,98561.34
2023-08-15T06:09:16.969Z,98571.97
2023-08-15T06:11:44.827Z,98582.97
2023-08-15T06:14:11.274Z,98570.66
2023-08-15T06:16:37.747Z,98570.25
2023-08-15T06:19:04.396Z,98571.84
2023-08-15T06:21:30.870Z,98574.28
2023-08-15T06:23:57.293Z,98582.63
2023-08-15T06:26:23.814Z,98584.41
2023-08-15T06:28:51.281Z,98588.44
2023-08-15T06:31:17.758Z,98585.09
2023-08-15T06:33:44.298Z,98583.56
2023-08-15T06:36:10.827Z,98578.03
2023-08-15T06:38:37.419Z,98580.44
2023-08-15T06:41:04.062Z,98584.44
2023-08-15T06:43:30.527Z,98584.50
2023-08-15T06:45:56.926Z,98584.56
2023-08-15T06:48:23.317Z,98575.16
2023-08-15T06:50:49.961Z,98581.75
2023-08-15T06:53:16.444Z,98585.19
2023-08-15T06:55:42.870Z,98589.31
2023-08-15T06:58:09.341Z,98611.22
2023-08-15T07:00:35.990Z,98599.00
2023-08-15T07:03:02.712Z,98593.47
2023-08-15T07:05:29.294Z,98596.66
2023-08-15T07:07:55.762Z,98596.66
2023-08-15T07:10:22.222Z,98607.00
2023-08-15T07:12:48.650Z,98605.44
2023-08-15T07:15:15.123Z,98611.78
2023-08-15T07:17:41.723Z,98600.63
2023-08-15T07:20:10.344Z,98598.13
2023-08-15T07:22:37.223Z,98598.88
2023-08-15T07:25:03.826Z,98601.59
2023-08-15T07:27:30.312Z,98598.38
2023-08-15T07:29:56.874Z,98594.88
2023-08-15T07:32:23.573Z,98588.63
2023-08-15T07:34:50.323Z,98601.44
2023-08-15T07:37:16.891Z,98603.75
2023-08-15T07:39:43.380Z,98606.84
2023-08-15T07:42:09.859Z,98609.19
2023-08-15T07:44:36.396Z,98607.63
2023-08-15T07:47:03.048Z,98597.75
2023-08-15T07:49:32.301Z,98600.66
2023-08-15T07:51:58.765Z,98610.25
2023-08-15T07:54:25.313Z,98604.66
2023-08-15T07:56:51.764Z,98607.44
2023-08-15T07:59:18.170Z,98601.41
2023-08-15T08:01:44.672Z,98590.25
2023-08-15T08:04:11.178Z,98593.88
2023-08-15T08:06:40.924Z,98585.56
2023-08-15T08:09:09.659Z,98588.78
2023-08-15T08:11:36.953Z,98593.16
2023-08-15T08:14:04.815Z,98605.47
2023-08-15T08:16:31.590Z,98610.22
2023-08-15T08:18:58.112Z,98606.25
2023-08-15T08:21:24.659Z,98613.44
2023-08-15T08:23:51.351Z,98607.06
2023-08-15T08:26:18.838Z,98606.25
2023-08-15T08:28:45.740Z,98605.84
2023-08-15T08:31:12.179Z,98593.91
2023-08-15T08:33:38.826Z,98598.25
2023-08-15T08:36:05.385Z,98599.44
2023-08-15T08:38:31.824Z,98597.47
2023-08-15T08:40:58.645Z,98591.91
2023-08-15T08:43:26.578Z,98587.97
2023-08-15T08:45:56.256Z,98598.28
2023-08-15T08:48:23.162Z,98606.66
2023-08-15T08:50:49.861Z,98605.84
2023-08-15T08:53:16.669Z,98601.50
2023-08-15T08:55:49.134Z,98600.66
2023-08-15T08:58:15.741Z,98601.38
2023-08-15T09:00:42.362Z,98608.38
2023-08-15T09:03:09.875Z,98604.44
2023-08-15T09:05:37.110Z,98604.81
2023-08-15T09:08:03.981Z,98605.56
2023-08-15T09:10:30.464Z,98608.41
2023-08-15T09:13:01.165Z,98601.31
2023-08-15T09:15:28.133Z,98612.50
2023-08-15T09:18:05.837Z,98612.50
2023-08-15T09:20:32.820Z,98614.16
2023-08-15T09:23:01.326Z,98614.88
2023-08-15T09:25:28.760Z,98612.03
2023-08-15T09:27:55.218Z,98610.78
2023-08-15T09:30:22.658Z,98609.97
2023-08-15T09:32:49.850Z,98614.34
2023-08-15T09:35:18.837Z,98617.91
2023-08-15T09:37:53.088Z,98607.97
2023-08-15T09:40:23.651Z,98617.13
2023-08-15T09:42:50.659Z,98605.19
2023-08-15T09:45:17.511Z,98604.81
2023-08-15T09:47:46.196Z,98609.97
2023-08-15T09:50:14.649Z,98606.34
2023-08-15T09:52:43.029Z,98608.34
2023-08-15T09:55:15.272Z,98610.75
2023-08-15T09:57:43.490Z,98605.56
2023-08-15T10:00:18.661Z,98603.53
2023-08-15T10:03:02.457Z,98607.47
2023-08-15T10:05:33.122Z,98604.22
2023-08-15T10:08:00.058Z,98612.53
2023-08-15T10:10:32.026Z,98615.69
2023-08-15T10:12:59.985Z,98620.47
2023-08-15T10:15:28.502Z,98625.69
2023-08-15T10:17:55.442Z,98624.09
2023-08-15T10:20:22.417Z,98630.50
2023-08-15T10:22:55.625Z,98625.72
2023-08-15T10:25:25.270Z,98630.34
2023-08-15T10:27:53.609Z,98632.72
2023-08-15T10:30:30.261Z,98634.72
2023-08-15T10:33:01.744Z,98629.56
2023-08-15T10:35:32.263Z,98628.38
2023-08-15T10:37:59.314Z,98637.56
2023-08-15T10:40:41.692Z,98642.72
2023-08-15T10:43:11.526Z,98630.41
2023-08-15T10:45:39.893Z,98648.72
2023-08-15T10:48:06.994Z,98644.34
2023-08-15T10:50:34.126Z,98636.34
2023-08-15T10:53:05.873Z,98642.69
2023-08-15T10:55:35.935Z,98641.91
2023-08-15T10:58:05.683Z,98647.84
2023-08-15T11:00:34.000Z,98640.53
2023-08-15T11:03:02.831Z,98645.91
2023-08-15T11:05:29.993Z,98636.78
2023-08-15T11:08:20.390Z,98638.97
2023-08-15T11:10:51.274Z,98628.69
2023-08-15T11:13:18.485Z,98643.47
2023-08-15T11:15:48.028Z,98639.94
2023-08-15T11:18:23.220Z,98640.97
2023-08-15T11:20:52.052Z,98638.94
2023-08-15T11:23:20.130Z,98643.75
2023-08-15T11:25:46.532Z,98634.94
2023-08-15T11:28:13.016Z,98653.34
2023-08-15T11:30:39.636Z,98646.47
2023-08-15T11:33:06.620Z,98646.72
2023-08-15T11:35:33.223Z,98649.31
2023-08-15T11:38:01.866Z,98636.78
2023-08-15T11:40:28.392Z,98647.88
2023-08-15T11:42:55.038Z,98651.44
2023-08-15T11:45:23.958Z,98646.22
2023-08-15T11:47:59.060Z,98651.59
2023-08-15T11:50:42.010Z,98650.00
2023-08-15T11:53:13.577Z,98642.72
2023-08-15T11:55:40.859Z,98637.38
2023-08-15T11:58:26.670Z,98628.78
2023-08-15T12:01:13.220Z,98633.38
2023-08-15T12:03:40.363Z,98628.19
2023-08-15T12:06:09.161Z,98639.97
2023-08-15T12:08:36.061Z,98633.59
2023-08-15T12:11:09.253Z,98628.31
2023-08-15T12:13:40.152Z,98628.31
2023-08-15T12:16:08.966Z,98640.97
2023-08-15T12:18:35.983Z,98640.38
2023-08-15T12:21:05.682Z,98637.72
2023-08-15T12:23:32.357Z,98636.63
2023-08-15T12:25:58.853Z,98639.41
2023-08-15T12:28:28.992Z,98640.59
2023-08-15T12:30:56.155Z,98632.47
2023-08-15T12:33:35.568Z,98641.09
2023-08-15T12:36:07.741Z,98633.31
2023-08-15T12:38:34.216Z,98637.16
2023-08-15T12:41:00.763Z,98629.41
2023-08-15T12:43:27.427Z,98640.94
2023-08-15T12:45:53.978Z,98623.59
2023-08-15T12:48:20.565Z,98636.16
2023-08-15T12:50:47.161Z,98630.91
2023-08-15T12:53:14.012Z,98634.13
2023-08-15T12:55:40.560Z,98631.56
2023-08-15T12:58:07.059Z,98637.06
2023-08-15T13:00:33.637Z,98636.38
2023-08-15T13:03:00.222Z,98625.25
2023-08-15T13:05:26.856Z,98634.38
2023-08-15T13:07:53.537Z,98621.75
2023-08-15T13:10:20.029Z,98621.75
2023-08-15T13:12:47.235Z,98624.78
2023-08-15T13:15:13.774Z,98620.03
2023-08-15T13:17:40.373Z,98622.91
2023-08-15T13:20:07.745Z,98618.75
2023-08-15T13:22:34.276Z,98606.09
2023-08-15T13:25:00.975Z,98615.91
2023-08-15T13:27:27.499Z,98614.97
2023-08-15T13:29:54.044Z,98621.38
2023-08-15T13:32:20.730Z,98615.47
2023-08-15T13:34:47.399Z,98607.69
2023-08-15T13:37:13.813Z,98607.75
2023-08-15T13:39:40.263Z,98605.78
2023-08-15T13:42:09.605Z,98605.94
2023-08-15T13:44:40.225Z,98616.38
2023-08-15T13:47:06.798Z,98596.19
2023-08-15T13:49:33.423Z,98590.09
2023-08-15T13:51:59.919Z,98585.72
2023-08-15T13:54:26.450Z,98587.50
2023-08-15T13:56:55.367Z,98572.66
2023-08-15T13:59:22.312Z,98576.16
2023-08-15T14:01:48.874Z,98572.81
2023-08-15T14:04:15.317Z,98579.63
2023-08-15T14:06:41.802Z,98576.31
2023-08-15T14:09:08.257Z,98576.44
2023-08-15T14:11:34.793Z,98577.66
2023-08-15T14:14:01.234Z,98584.78
2023-08-15T14:16:27.726Z,98578.41
2023-08-15T14:18:54.144Z,98588.03
2023-08-15T14:21:20.587Z,98581.25
2023-08-15T14:23:47.821Z,98584.97
2023-08-15T14:26:14.376Z,98580.03
2023-08-15T14:28:40.855Z,98578.25
2023-08-15T14:31:07.398Z,98587.66
2023-08-15T14:33:33.958Z,98586.03
2023-08-15T14:36:00.540Z,98585.31
2023-08-15T14:38:27.114Z,98583.66
2023-08-15T14:40:53.793Z,98581.84
2023-08-15T14:43:20.262Z,98582.28
2023-08-15T14:45:46.808Z,98582.22
2023-08-15T14:48:13.321Z,98575.69
2023-08-15T14:50:41.147Z,98580.84
2023-08-15T14:53:07.678Z,98577.09
2023-08-15T14:55:34.296Z,98569.34
2023-08-15T14:58:01.074Z,98582.75
2023-08-15T15:00:27.680Z,98570.50
2023-08-15T15:02:54.275Z,98564.09
2023-08-15T15:05:21.010Z,98567.09
2023-08-15T15:07:47.592Z,98561.63
2023-08-15T15:10:14.173Z,98567.69
2023-08-15T15:12:40.972Z,98569.16
2023-08-15T15:15:09.708Z,98572.31
2023-08-15T15:17:36.484Z,98560.41
2023-08-15T15:20:04.601Z,98557.47
2023-08-15T15:22:31.193Z,98575.25
2023-08-15T15:24:57.754Z,98561.84
2023-08-15T15:27:24.260Z,98570.91
2023-08-15T15:29:51.089Z,98564.09
2023-08-15T15:32:17.744Z,98573.03
2023-08-15T15:34:44.224Z,98573.88
2023-08-15T15:37:10.691Z,98574.78
2023-08-15T15:39:37.127Z,98584.28
2023-08-15T15:42:03.855Z,98574.06
2023-08-15T15:44:30.926Z,98576.53
2023-08-15T15:46:57.723Z,98580.63
2023-08-15T15:49:24.504Z,98575.59
2023-08-15T15:51:51.001Z,98575.47
2023-08-15T15:54:17.555Z,98577.97
2023-08-15T15:56:44.341Z,98577.69
2023-08-15T15:59:11.365Z,98582.03
2023-08-15T16:01:38.151Z,98576.13
2023-08-15T16:04:04.926Z,98581.34
2023-08-15T16:06:31.899Z,98579.44
2023-08-15T16:08:58.716Z,98588.84
2023-08-15T16:11:25.693Z,98582.66
2023-08-15T16:13:52.660Z,98586.78
2023-08-15T16:16:19.168Z,98585.22
2023-08-15T16:18:45.813Z,98593.56
2023-08-15T16:21:12.557Z,98594.72
2023-08-15T16:23:39.087Z,98600.28
2023-08-15T16:26:05.646Z,98601.00
2023-08-15T16:28:32.124Z,98613.00
2023-08-15T16:30:58.609Z,98614.69
2023-08-15T16:33:25.121Z,98606.41
2023-08-15T16:35:51.576Z,98607.66
2023-08-15T16:38:18.047Z,98615.78
2023-08-15T16:40:44.529Z,98608.69
2023-08-15T16:43:11.894Z,98617.06
2023-08-15T16:45:39.863Z,98619.00
2023-08-15T16:48:07.115Z,98616.63
2023-08-15T16:50:33.595Z,98615.84
2023-08-15T16:53:03.664Z,98613.06
2023-08-15T16:55:47.254Z,98619.88
2023-08-15T16:58:14.067Z,98619.50
2023-08-15T17:00:41.116Z,98619.53
2023-08-15T17:03:07.767Z,98623.53
2023-08-15T17:05:34.518Z,98612.81
2023-08-15T17:08:01.045Z,98625.19
2023-08-15T17:10:27.951Z,98632.72
2023-08-15T17:12:54.572Z,98635.94
2023-08-15T17:15:21.061Z,98638.31
2023-08-15T17:17:47.559Z,98643.09
2023-08-15T17:20:14.065Z,98647.13
2023-08-15T17:22:40.533Z,98649.13
2023-08-15T17:25:07.532Z,98651.13
2023-08-15T17:27:34.096Z,98656.34
2023-08-15T17:30:00.546Z,98655.19
2023-08-15T17:32:27.598Z,98657.56
2023-08-15T17:34:54.165Z,98659.22
2023-08-15T17:37:20.752Z,98663.22
2023-08-15T17:39:47.232Z,98667.63
2023-08-15T17:42:13.729Z,98665.25
2023-08-15T17:44:40.272Z,98665.28
2023-08-15T17:47:07.017Z,98676.44
2023-08-15T17:49:33.783Z,98670.88
2023-08-15T17:52:00.249Z,98668.91
2023-08-15T17:54:27.122Z,98669.69
2023-08-15T17:56:53.659Z,98673.13
2023-08-15T17:59:20.216Z,98673.00
2023-08-15T18:01:46.752Z,98673.13
2023-08-15T18:04:13.618Z,98677.38
2023-08-15T18:06:40.137Z,98689.22
2023-08-15T18:09:06.652Z,98692.88
2023-08-15T18:11:33.392Z,98697.28
2023-08-15T18:14:01.581Z,98692.72
2023-08-15T18:16:29.038Z,98696.78
2023-08-15T18:18:55.663Z,98697.63
2023-08-15T18:21:22.373Z,98702.41
2023-08-15T18:23:48.974Z,98709.59
2023-08-15T18:26:15.536Z,98706.44
2023-08-15T18:28:42.079Z,98706.41
2023-08-15T18:31:08.638Z,98707.63
2023-08-15T18:33:35.088Z,98714.78
2023-08-15T18:36:01.762Z,98707.22
2023-08-15T18:38:32.541Z,98713.56
2023-08-15T18:40:59.647Z,98715.94
2023-08-15T18:43:26.201Z,98712.75
2023-08-15T18:45:53.397Z,98711.16
2023-08-15T18:48:21.465Z,98724.69
2023-08-15T18:50:48.253Z,98726.25
2023-08-15T18:53:14.826Z,98733.38
2023-08-15T18:55:42.396Z,98734.13
2023-08-15T18:58:10.388Z,98738.09
2023-08-15T19:00:38.819Z,98742.06
2023-08-15T19:03:05.927Z,98744.81
2023-08-15T19:05:32.589Z,98752.34
2023-08-15T19:07:59.816Z,98753.09
2023-08-15T19:10:26.454Z,98761.44
2023-08-15T19:12:53.058Z,98756.25
2023-08-15T19:15:20.918Z,98762.63
2023-08-15T19:17:50.858Z,98772.09
2023-08-15T19:20:22.355Z,98768.94
2023-08-15T19:22:49.591Z,98777.22
2023-08-15T19:25:16.994Z,98773.66
2023-08-15T19:27:43.842Z,98772.84
2023-08-15T19:30:10.733Z,98768.78
2023-08-15T19:32:37.286Z,98768.00
2023-08-15T19:35:04.734Z,98774.31
2023-08-15T19:37:37.912Z,98773.91
2023-08-15T19:40:07.861Z,98778.22
2023-08-15T19:42:43.242Z,98778.59
2023-08-15T19:45:11.289Z,98777.78
2023-08-15T19:47:38.952Z,98778.16
2023-08-15T19:50:06.859Z,98770.16
2023-08-15T19:52:34.678Z,98770.91
2023-08-15T19:55:01.827Z,98778.78
2023-08-15T19:57:28.293Z,98778.38
2023-08-15T19:59:54.848Z,98786.66
2023-08-15T20:02:21.826Z,98787.84
2023-08-15T20:04:48.778Z,98788.25
2023-08-15T20:07:15.285Z,98784.25
2023-08-15T20:09:46.649Z,98788.97
2023-08-15T20:12:18.471Z,98790.50
2023-08-15T20:14:44.934Z,98783.34
2023-08-15T20:17:11.662Z,98788.03
2023-08-15T20:19:38.131Z,98788.81
2023-08-15T20:22:04.801Z,98778.47
2023-08-15T20:24:32.129Z,98784.03
2023-08-15T20:26:58.589Z,98784.38
2023-08-15T20:29:24.998Z,98797.41
2023-08-15T20:31:51.585Z,98788.25
2023-08-15T20:34:18.068Z,98787.47
2023-08-15T20:36:44.612Z,98793.00
2023-08-15T20:39:11.082Z,98793.31
2023-08-15T20:41:37.573Z,98793.25
2023-08-15T20:44:04.132Z,98796.38
2023-08-15T20:46:38.815Z,98788.03
2023-08-15T20:49:05.451Z,98786.84
2023-08-15T20:51:32.420Z,98790.78
2023-08-15T20:53:59.867Z,98781.25
2023-08-15T20:56:29.659Z,98784.34
2023-08-15T20:58:56.593Z,98778.78
2023-08-15T21:01:23.287Z,98773.97
2023-08-15T21:03:50.146Z,98781.09
2023-08-15T21:06:16.950Z,98784.59
2023-08-15T21:08:43.528Z,98788.50
2023-08-15T21:11:10.049Z,98792.81
2023-08-15T21:13:36.670Z,98795.94
2023-08-15T21:16:03.161Z,98798.63
2023-08-15T21:18:29.616Z,98806.16
2023-08-15T21:20:56.077Z,98805.75
2023-08-15T21:23:22.581Z,98808.50
2023-08-15T21:25:49.013Z,98806.94
2023-08-15T21:28:17.153Z,98803.69
2023-08-15T21:30:44.091Z,98812.75
2023-08-15T21:33:11.015Z,98817.03
2023-08-15T21:35:37.443Z,98813.78
2023-08-15T21:38:04.017Z,98815.34
2023-08-15T21:40:30.415Z,98817.28
2023-08-15T21:42:56.934Z,98818.47
2023-08-15T21:45:23.571Z,98821.19
2023-08-15T21:47:50.093Z,98821.56
2023-08-15T21:50:16.574Z,98819.16
2023-08-15T21:52:43.080Z,98824.69
2023-08-15T21:55:09.797Z,98836.16
2023-08-15T21:57:36.276Z,98834.16
2023-08-15T22:00:02.797Z,98837.66
2023-08-15T22:02:32.334Z,98836.81
2023-08-15T22:04:59.490Z,98837.53
2023-08-15T22:07:25.943Z,98831.16
2023-08-15T22:09:52.379Z,98837.81
2023-08-15T22:12:18.791Z,98837.81
2023-08-15T22:14:45.176Z,98839.47
2023-08-15T22:17:11.645Z,98837.81
2023-08-15T22:19:38.252Z,98831.47
2023-08-15T22:25:51.934Z,98838.47
2023-08-15T22:28:18.612Z,98834.47
2023-08-15T22:30:45.503Z,98843.78
2023-08-15T22:33:12.014Z,98843.59
2023-08-15T22:35:39.789Z,98841.16
2023-08-15T22:38:06.288Z,98841.16
2023-08-15T22:40:32.809Z,98845.13
2023-08-15T22:42:59.238Z,98845.13
2023-08-15T22:45:25.699Z,98842.06
2023-08-15T22:47:52.361Z,98842.00
2023-08-15T22:50:19.216Z,98843.97
2023-08-15T22:52:45.993Z,98847.53
2023-08-15T22:55:12.400Z,98848.31
2023-08-15T22:57:38.887Z,98832.09
2023-08-15T23:00:06.048Z,98819.38
2023-08-15T23:02:32.480Z,98819.69
2023-08-15T23:04:58.938Z,98811.41
2023-08-15T23:07:25.591Z,98811.41
2023-08-15T23:09:52.149Z,98810.94
2023-08-15T23:12:18.628Z,98806.59
2023-08-15T23:14:45.082Z,98808.81
2023-08-15T23:17:11.637Z,98810.59
2023-08-15T23:19:38.098Z,98806.75
2023-08-15T23:22:04.636Z,98803.84
2023-08-15T23:24:31.161Z,98803.34
2023-08-15T23:26:57.756Z,98797.44
2023-08-15T23:29:24.262Z,98795.13
2023-08-15T23:31:50.758Z,98794.69
2023-08-15T23:34:17.841Z,98798.25
2023-08-15T23:36:44.269Z,98787.94
2023-08-15T23:39:10.753Z,98789.09
2023-08-15T23:41:37.150Z,98787.06
2023-08-15T23:44:03.775Z,98783.88
2023-08-15T23:46:30.257Z,98791.00
2023-08-15T23:48:56.889Z,98780.72
2023-08-15T23:51:23.482Z,98783.16
2023-08-15T23:53:51.333Z,98783.44
2023-08-15T23:56:17.768Z,98784.91
2023-08-15T23:58:45.926Z,98780.56
